East Pitcairn, New York
Current Conditions -  °F | °C
As of 10:58 AM on Thursday 29 Jan 2015 (Local Time) from KGTB Reporting Station
Broken Clouds Broken Clouds  
Wind Chill:   Ceiling: 13000
Heat Index: 22°   Visibility: 10mi
Dew Point: -3°   Wind: 17mph
Humidity: 33%   Direction: 140°SE
Pressure: 30.03"   Gusts: NA
Location:  44.1447°N, 75.2952°W
Report Text: KGTB 291558Z AUTO 14015KT 10SM SCT100 BKN130 M05/M19 A3003 RMK AO2 PRESFR SLP183 T10551195
Loading
Personal Weather Stations






























Interactive Weather Map New forecast layout! Learn more

10-Day Weather Forecast

Advertisements
Track Severe Weather on mobile